Time;durP1;ratioP1;P1;durP2;ratioP2;P2;SDS_P1;SDS_P2;PMS_P1;PMS_P2;Temp;Humidity;BMP_temperature;BMP_pressure;BME280_temperature;BME280_humidity;BME280_pressure;Samples;Min_cycle;Max_cycle;Signal;HPM_P1;HPM_P2
2021/03/18 00:00:09;;;;;;;5.30;3.75;;;1.60;99.90;;;;;;5044265;28;20345;-83
2021/03/18 00:02:35;;;;;;;4.30;3.90;;;1.60;99.90;;;;;;5037158;28;20649;-83
2021/03/18 00:05:01;;;;;;;6.40;4.20;;;1.60;99.90;;;;;;5052017;28;20186;-82
2021/03/18 00:07:27;;;;;;;4.03;3.67;;;1.60;99.90;;;;;;5052828;28;20200;-83
2021/03/18 00:09:53;;;;;;;5.60;4.05;;;1.60;99.90;;;;;;5042769;28;20198;-83
2021/03/18 00:12:19;;;;;;;6.07;4.85;;;1.60;99.90;;;;;;5046425;28;20217;-83
2021/03/18 00:14:46;;;;;;;5.43;4.50;;;1.60;99.90;;;;;;5051812;28;20208;-84
2021/03/18 00:17:12;;;;;;;5.30;3.90;;;1.60;99.90;;;;;;5037068;28;20320;-84
2021/03/18 00:19:39;;;;;;;5.20;4.25;;;1.60;99.90;;;;;;5052751;28;20271;-84
2021/03/18 00:22:05;;;;;;;5.35;4.40;;;1.60;99.90;;;;;;5041237;28;20193;-84
2021/03/18 00:24:31;;;;;;;4.53;3.78;;;1.60;99.90;;;;;;5047745;28;20301;-84
2021/03/18 00:26:57;;;;;;;5.03;4.53;;;1.60;99.90;;;;;;5049579;28;20201;-83
2021/03/18 00:29:23;;;;;;;3.60;3.30;;;1.60;99.90;;;;;;5051809;28;20221;-82
2021/03/18 00:31:50;;;;;;;4.32;3.92;;;1.60;99.90;;;;;;5037674;28;20211;-82
2021/03/18 00:34:16;;;;;;;6.20;4.28;;;1.60;99.90;;;;;;5049095;28;20193;-82
2021/03/18 00:36:43;;;;;;;4.93;4.07;;;1.60;99.90;;;;;;5032664;28;20229;-81
2021/03/18 00:39:11;;;;;;;4.65;3.78;;;1.60;99.90;;;;;;5039099;28;20232;-82
2021/03/18 00:41:38;;;;;;;6.35;4.20;;;1.60;99.90;;;;;;5041218;28;20197;-82
2021/03/18 00:44:04;;;;;;;6.00;4.88;;;1.60;99.90;;;;;;5046565;28;20235;-82
2021/03/18 00:46:30;;;;;;;6.57;4.28;;;1.60;99.90;;;;;;5035296;28;20197;-82
2021/03/18 00:48:57;;;;;;;6.25;4.22;;;1.50;99.90;;;;;;5047788;28;20601;-82
2021/03/18 00:51:24;;;;;;;4.50;3.75;;;1.60;99.90;;;;;;5045101;28;20193;-82
2021/03/18 00:53:50;;;;;;;6.25;3.83;;;1.60;99.90;;;;;;5056126;28;20193;-82
2021/03/18 00:56:18;;;;;;;3.90;3.47;;;1.60;99.90;;;;;;5039749;28;20202;-82
2021/03/18 00:58:46;;;;;;;5.90;4.20;;;1.50;99.90;;;;;;5039536;28;20189;-82
2021/03/18 01:01:14;;;;;;;4.88;4.38;;;1.50;99.90;;;;;;5048628;28;20193;-82
2021/03/18 01:03:43;;;;;;;4.93;4.05;;;1.50;99.90;;;;;;5047295;28;20276;-82
2021/03/18 01:06:13;;;;;;;6.10;4.28;;;1.50;99.90;;;;;;5040893;28;20217;-82
2021/03/18 01:08:39;;;;;;;5.60;4.50;;;1.40;99.90;;;;;;5054969;28;20700;-82
2021/03/18 01:11:08;;;;;;;5.20;4.70;;;1.40;99.90;;;;;;5049172;28;20594;-82
2021/03/18 01:13:35;;;;;;;6.93;4.53;;;1.40;99.90;;;;;;5046555;28;20530;-82
2021/03/18 01:16:05;;;;;;;6.25;3.90;;;1.40;99.90;;;;;;5041967;28;20532;-82
2021/03/18 01:18:37;;;;;;;5.20;3.97;;;1.40;99.90;;;;;;5052398;28;20186;-82
2021/03/18 01:21:05;;;;;;;5.43;4.45;;;1.40;99.90;;;;;;5042080;28;20190;-82
2021/03/18 01:23:32;;;;;;;6.97;4.93;;;1.40;99.90;;;;;;5045812;28;20183;-82
2021/03/18 01:25:59;;;;;;;9.48;5.15;;;1.40;99.90;;;;;;5041824;28;20194;-83
2021/03/18 01:28:25;;;;;;;6.78;4.72;;;1.40;99.90;;;;;;5037013;28;20218;-89
2021/03/18 01:30:53;;;;;;;4.70;4.15;;;1.40;99.90;;;;;;5036077;28;20293;-82
2021/03/18 01:33:20;;;;;;;4.82;4.25;;;1.40;99.90;;;;;;5038609;28;20210;-81
2021/03/18 01:35:46;;;;;;;5.10;4.60;;;1.40;99.90;;;;;;5035965;28;20289;-81
2021/03/18 01:38:13;;;;;;;7.45;4.90;;;1.40;99.90;;;;;;5035981;28;20222;-81
2021/03/18 01:40:40;;;;;;;5.80;5.18;;;1.40;99.90;;;;;;5036113;28;20247;-81
2021/03/18 01:43:06;;;;;;;6.75;5.70;;;1.40;99.90;;;;;;5035946;28;20198;-80
2021/03/18 01:45:33;;;;;;;5.82;5.28;;;1.40;99.90;;;;;;5036185;28;20199;-81
2021/03/18 01:47:59;;;;;;;7.05;5.25;;;1.50;99.90;;;;;;5035755;28;20207;-80
2021/03/18 01:50:28;;;;;;;8.50;4.90;;;1.40;99.90;;;;;;5035778;28;20222;-80
2021/03/18 01:52:55;;;;;;;7.75;6.28;;;1.50;99.90;;;;;;5035463;28;20290;-80
2021/03/18 01:55:27;;;;;;;5.95;5.35;;;1.50;99.90;;;;;;5035932;28;20332;-80
2021/03/18 01:57:55;;;;;;;8.60;5.57;;;1.60;99.90;;;;;;5035906;28;20285;-80
2021/03/18 02:00:23;;;;;;;8.30;4.82;;;1.60;99.90;;;;;;5038045;28;20645;-80
2021/03/18 02:02:49;;;;;;;8.07;5.35;;;1.70;99.90;;;;;;5055464;28;20194;-81
2021/03/18 02:05:15;;;;;;;6.53;5.80;;;1.70;99.90;;;;;;5055418;28;20194;-80
2021/03/18 02:07:41;;;;;;;7.15;5.78;;;1.80;99.90;;;;;;5055401;28;20216;-80
2021/03/18 02:10:08;;;;;;;7.20;5.78;;;1.80;99.90;;;;;;5055291;28;20649;-81
2021/03/18 02:12:35;;;;;;;8.40;6.35;;;1.90;99.90;;;;;;5055384;28;20225;-81
2021/03/18 02:15:03;;;;;;;8.63;5.75;;;1.90;99.90;;;;;;5055274;28;20197;-81
2021/03/18 02:17:35;;;;;;;8.55;6.15;;;1.90;99.90;;;;;;5055016;28;20273;-80
2021/03/18 02:20:58;;;;;;;9.23;6.80;;;2.00;99.90;;;;;;5055055;28;20197;-81
2021/03/18 02:24:04;;;;;;;7.75;6.43;;;2.10;99.90;;;;;;5054921;28;20205;-80
2021/03/18 02:26:59;;;;;;;6.43;5.82;;;2.10;99.90;;;;;;5054952;28;20222;-80
2021/03/18 02:29:51;;;;;;;9.50;6.50;;;2.20;99.90;;;;;;5055041;28;20308;-81
2021/03/18 02:32:29;;;;;;;9.35;7.75;;;2.20;99.90;;;;;;5054527;28;20526;-80
2021/03/18 02:35:18;;;;;;;17.23;9.65;;;2.20;99.90;;;;;;5055180;28;20194;-81
2021/03/18 02:37:50;;;;;;;11.95;8.07;;;2.30;99.90;;;;;;5038709;28;20191;-81
2021/03/18 02:40:21;;;;;;;14.25;8.82;;;2.30;99.90;;;;;;5034927;28;20231;-81
2021/03/18 02:42:52;;;;;;;8.80;7.57;;;2.30;99.90;;;;;;5034448;28;20194;-81
2021/03/18 02:45:20;;;;;;;9.25;8.25;;;2.40;99.90;;;;;;5034982;28;20221;-81
2021/03/18 02:47:50;;;;;;;12.15;9.18;;;2.40;99.90;;;;;;5034548;28;20253;-81
2021/03/18 02:50:18;;;;;;;12.75;10.10;;;2.50;99.90;;;;;;5034774;28;20195;-81
2021/03/18 02:52:45;;;;;;;13.95;9.32;;;2.50;99.90;;;;;;5034408;28;20198;-81
2021/03/18 02:55:13;;;;;;;8.88;7.55;;;2.50;99.90;;;;;;5034488;28;20249;-81
2021/03/18 02:57:42;;;;;;;13.63;9.40;;;2.50;99.90;;;;;;5034645;28;20195;-81
2021/03/18 03:00:11;;;;;;;13.82;9.27;;;2.60;99.90;;;;;;5034631;28;20583;-81
2021/03/18 03:02:38;;;;;;;11.45;8.98;;;2.60;99.90;;;;;;5034462;28;20274;-81
2021/03/18 03:05:06;;;;;;;9.60;7.40;;;2.60;99.90;;;;;;5034439;28;20210;-81
2021/03/18 03:07:34;;;;;;;11.25;8.50;;;2.60;99.90;;;;;;5034187;28;20281;-81
2021/03/18 03:10:04;;;;;;;13.43;10.15;;;2.60;99.90;;;;;;5034227;28;20237;-81
2021/03/18 03:12:32;;;;;;;12.75;9.45;;;2.60;99.90;;;;;;5034430;28;20254;-81
2021/03/18 03:15:00;;;;;;;13.23;9.27;;;2.60;99.90;;;;;;5034412;28;20191;-81
2021/03/18 03:17:28;;;;;;;13.63;9.80;;;2.60;99.90;;;;;;5034095;28;20222;-80
2021/03/18 03:19:58;;;;;;;10.90;7.90;;;2.60;99.90;;;;;;5034168;28;20197;-80
2021/03/18 03:22:25;;;;;;;11.95;9.00;;;2.60;99.90;;;;;;5033994;28;20237;-80
2021/03/18 03:24:54;;;;;;;14.02;10.15;;;2.70;99.90;;;;;;5033926;28;20231;-79
2021/03/18 03:27:22;;;;;;;14.38;10.85;;;2.70;99.90;;;;;;5034047;28;20286;-79
2021/03/18 03:29:49;;;;;;;14.60;10.80;;;2.70;99.90;;;;;;5033960;28;20222;-76
2021/03/18 03:32:15;;;;;;;15.55;10.35;;;2.70;99.90;;;;;;5037441;28;20213;-79
2021/03/18 03:34:42;;;;;;;13.48;10.20;;;2.70;99.90;;;;;;5053763;28;20564;-84
2021/03/18 03:37:09;;;;;;;14.23;10.07;;;2.80;99.90;;;;;;5053511;28;20190;-85
2021/03/18 03:39:39;;;;;;;15.45;10.35;;;2.70;99.90;;;;;;5053708;28;20229;-85
2021/03/18 03:42:07;;;;;;;16.85;9.90;;;2.80;99.90;;;;;;5053768;28;20696;-84
2021/03/18 03:44:34;;;;;;;18.02;11.40;;;2.80;99.90;;;;;;5053490;28;20635;-87
2021/03/18 03:47:00;;;;;;;15.95;10.18;;;2.70;99.90;;;;;;5053589;28;20194;-85
2021/03/18 03:49:26;;;;;;;17.73;10.73;;;2.70;99.90;;;;;;5053278;28;20225;-79
2021/03/18 03:52:01;;;;;;;20.30;12.45;;;2.70;99.90;;;;;;5053649;28;20282;-80
2021/03/18 03:54:30;;;;;;;24.38;13.15;;;2.70;99.90;;;;;;5053412;28;20189;-88
2021/03/18 03:57:03;;;;;;;24.95;15.07;;;2.70;99.90;;;;;;5053357;28;20193;-80
2021/03/18 03:59:35;;;;;;;15.23;10.77;;;2.60;99.90;;;;;;5051972;28;20568;-81
2021/03/18 04:02:04;;;;;;;25.08;14.35;;;2.60;99.90;;;;;;5043573;28;20218;-80
2021/03/18 04:04:35;;;;;;;17.92;12.70;;;2.60;99.90;;;;;;5041762;28;20590;-80
2021/03/18 04:07:04;;;;;;;27.45;16.52;;;2.60;99.90;;;;;;5044568;28;20284;-81
2021/03/18 04:09:31;;;;;;;23.50;14.82;;;2.60;99.90;;;;;;5033226;28;20280;-84
2021/03/18 04:12:00;;;;;;;19.73;13.13;;;2.60;99.90;;;;;;5033330;28;20281;-86
2021/03/18 04:14:28;;;;;;;21.65;15.20;;;2.60;99.90;;;;;;5033239;28;20859;-79
2021/03/18 04:17:00;;;;;;;24.77;15.13;;;2.50;99.90;;;;;;5035795;28;20195;-80
2021/03/18 04:19:26;;;;;;;21.55;15.15;;;2.50;99.90;;;;;;5040866;28;20213;-80
2021/03/18 04:21:54;;;;;;;22.60;13.00;;;2.50;99.90;;;;;;5042471;28;20194;-79
2021/03/18 04:24:22;;;;;;;24.92;16.02;;;2.50;99.90;;;;;;5036170;28;20709;-79
2021/03/18 04:26:49;;;;;;;22.00;13.73;;;2.50;99.90;;;;;;5052526;28;20214;-80
2021/03/18 04:29:16;;;;;;;15.65;11.07;;;2.50;99.90;;;;;;5052459;28;20253;-80
2021/03/18 04:31:43;;;;;;;22.98;14.75;;;2.60;99.90;;;;;;5053080;28;20225;-80
2021/03/18 04:34:15;;;;;;;13.27;10.20;;;2.60;99.90;;;;;;5052809;28;20236;-80
2021/03/18 04:36:43;;;;;;;18.75;12.88;;;2.60;99.90;;;;;;5052218;28;20526;-81
2021/03/18 04:39:10;;;;;;;22.13;14.75;;;2.60;99.90;;;;;;5052876;28;20190;-81
2021/03/18 04:41:37;;;;;;;23.98;14.10;;;2.60;99.90;;;;;;5052672;28;20189;-80
2021/03/18 04:44:05;;;;;;;25.23;15.50;;;2.60;99.90;;;;;;5052789;28;20580;-79
2021/03/18 04:46:32;;;;;;;22.85;15.40;;;2.50;99.90;;;;;;5052985;28;20225;-80
2021/03/18 04:49:02;;;;;;;24.23;13.52;;;2.50;99.90;;;;;;5052579;28;20323;-80
2021/03/18 04:51:29;;;;;;;12.52;9.07;;;2.60;99.90;;;;;;5052663;28;20605;-80
2021/03/18 04:53:57;;;;;;;18.15;12.30;;;2.60;99.90;;;;;;5052596;28;20201;-80
2021/03/18 04:56:25;;;;;;;18.70;11.40;;;2.60;99.90;;;;;;5052494;28;20194;-80
2021/03/18 04:58:53;;;;;;;17.30;11.80;;;2.60;99.90;;;;;;5052659;28;20247;-80
2021/03/18 05:01:22;;;;;;;17.10;11.20;;;2.60;99.90;;;;;;5052650;28;20194;-81
2021/03/18 05:03:49;;;;;;;15.57;11.77;;;2.60;99.90;;;;;;5052525;28;20663;-79
2021/03/18 05:06:15;;;;;;;13.40;9.35;;;2.60;99.90;;;;;;5052365;28;20645;-79
2021/03/18 05:08:43;;;;;;;15.60;8.88;;;2.60;99.90;;;;;;5052261;28;20680;-81
2021/03/18 05:11:10;;;;;;;10.70;9.30;;;2.60;99.90;;;;;;5052616;28;20186;-79
2021/03/18 05:13:37;;;;;;;11.25;8.32;;;2.70;99.90;;;;;;5052540;28;20522;-80
2021/03/18 05:16:04;;;;;;;11.20;9.23;;;2.70;99.90;;;;;;5052536;28;20550;-80
2021/03/18 05:18:32;;;;;;;10.60;8.85;;;2.80;99.90;;;;;;5052390;28;20194;-80
2021/03/18 05:21:00;;;;;;;11.18;9.60;;;2.80;99.90;;;;;;5052310;28;20236;-80
2021/03/18 05:23:27;;;;;;;10.38;7.70;;;2.80;99.90;;;;;;5052325;28;20194;-79
2021/03/18 05:25:54;;;;;;;11.85;7.45;;;2.80;99.90;;;;;;5052506;28;20194;-80
2021/03/18 05:28:20;;;;;;;9.43;7.82;;;2.80;99.90;;;;;;5052205;28;20317;-80
2021/03/18 05:30:47;;;;;;;8.40;7.20;;;2.80;99.90;;;;;;5052392;28;20205;-79
2021/03/18 05:33:13;;;;;;;8.30;6.88;;;2.80;99.90;;;;;;5040387;28;20278;-79
2021/03/18 05:35:41;;;;;;;11.75;7.78;;;2.80;99.90;;;;;;5034281;28;20191;-80
2021/03/18 05:38:09;;;;;;;9.25;7.18;;;2.80;99.90;;;;;;5036071;28;20222;-79
2021/03/18 05:40:35;;;;;;;10.82;7.43;;;2.70;99.90;;;;;;5036074;28;20550;-79
2021/03/18 05:43:03;;;;;;;9.27;6.75;;;2.70;99.90;;;;;;5035898;28;20198;-80
2021/03/18 05:45:30;;;;;;;8.13;7.18;;;2.70;99.90;;;;;;5036000;28;20705;-79
2021/03/18 05:47:57;;;;;;;10.45;8.05;;;2.70;99.90;;;;;;5035846;28;20277;-79
2021/03/18 05:50:24;;;;;;;12.02;8.00;;;2.70;99.90;;;;;;5035574;28;20194;-79
2021/03/18 05:52:51;;;;;;;7.82;6.22;;;2.80;99.90;;;;;;5035979;28;20191;-79
2021/03/18 05:55:20;;;;;;;26.83;17.33;;;2.90;99.90;;;;;;5035728;28;20191;-79
2021/03/18 05:57:48;;;;;;;15.70;9.57;;;3.00;99.90;;;;;;5035799;28;20566;-79
2021/03/18 06:00:16;;;;;;;10.95;7.45;;;3.10;99.90;;;;;;5035654;28;20191;-80
2021/03/18 06:02:43;;;;;;;9.65;7.50;;;3.10;99.90;;;;;;5035475;28;20240;-80
2021/03/18 06:05:12;;;;;;;9.75;6.28;;;3.30;99.90;;;;;;5035933;28;20199;-81
2021/03/18 06:07:40;;;;;;;10.63;7.18;;;3.30;99.90;;;;;;5035642;28;20294;-81
2021/03/18 06:10:08;;;;;;;9.02;6.65;;;3.40;99.90;;;;;;5035252;28;20254;-80
2021/03/18 06:12:36;;;;;;;8.43;6.85;;;3.40;99.90;;;;;;5035412;28;20618;-80
2021/03/18 06:15:04;;;;;;;8.98;6.43;;;3.50;99.90;;;;;;5035279;28;20607;-80
2021/03/18 06:17:32;;;;;;;6.97;6.25;;;3.60;99.90;;;;;;5035183;28;20197;-80
2021/03/18 06:19:59;;;;;;;8.85;7.30;;;3.80;99.90;;;;;;5035389;28;20288;-80
2021/03/18 06:22:33;;;;;;;8.10;7.30;;;3.90;99.90;;;;;;5035365;28;20198;-80
2021/03/18 06:24:59;;;;;;;8.20;6.72;;;4.00;99.90;;;;;;5035185;28;20308;-80
2021/03/18 06:27:26;;;;;;;9.57;7.00;;;4.10;99.90;;;;;;5035318;28;20260;-80
2021/03/18 06:29:52;;;;;;;9.13;6.90;;;4.10;99.90;;;;;;5035022;28;20686;-81
2021/03/18 06:32:20;;;;;;;10.63;7.63;;;4.30;99.90;;;;;;5039543;28;20186;-80
2021/03/18 06:34:49;;;;;;;8.48;7.57;;;4.60;99.90;;;;;;5055133;28;20280;-80
2021/03/18 06:37:30;;;;;;;8.90;7.68;;;5.00;99.90;;;;;;5054486;28;20288;-81
2021/03/18 06:39:58;;;;;;;6.97;6.38;;;5.30;99.90;;;;;;5055162;28;20686;-80
2021/03/18 06:42:24;;;;;;;8.05;7.20;;;5.30;99.90;;;;;;5054885;28;20277;-80
2021/03/18 06:45:03;;;;;;;7.85;7.15;;;5.20;99.90;;;;;;5054991;28;20256;-80
2021/03/18 06:47:42;;;;;;;8.25;6.95;;;5.10;99.90;;;;;;5054373;28;20190;-81
2021/03/18 06:50:11;;;;;;;8.10;7.22;;;5.20;99.90;;;;;;5054598;28;20217;-81
2021/03/18 06:52:39;;;;;;;8.07;7.25;;;5.20;99.90;;;;;;5054670;28;20217;-81
2021/03/18 06:55:08;;;;;;;8.10;7.00;;;5.30;99.90;;;;;;5054919;28;20510;-81
2021/03/18 06:57:34;;;;;;;10.80;7.75;;;5.30;99.90;;;;;;5054552;28;20190;-81
2021/03/18 07:00:00;;;;;;;8.63;7.03;;;5.40;99.90;;;;;;5054814;28;20194;-81
2021/03/18 07:02:26;;;;;;;11.15;8.20;;;5.50;99.90;;;;;;5035250;28;20670;-81
2021/03/18 07:04:54;;;;;;;9.98;8.57;;;5.60;99.90;;;;;;5034502;28;20191;-81
2021/03/18 07:07:25;;;;;;;9.32;8.35;;;5.70;99.90;;;;;;5034490;28;20276;-81
2021/03/18 07:09:53;;;;;;;12.25;9.07;;;5.70;99.90;;;;;;5034471;28;20219;-81
2021/03/18 07:12:28;;;;;;;9.73;8.48;;;5.60;99.90;;;;;;5034354;28;20191;-81
2021/03/18 07:14:56;;;;;;;10.60;8.80;;;5.60;99.90;;;;;;5034306;28;20190;-81
2021/03/18 07:17:29;;;;;;;13.95;9.50;;;5.60;99.90;;;;;;5034281;28;20277;-81
2021/03/18 07:20:09;;;;;;;13.63;9.55;;;5.50;99.90;;;;;;5034190;28;20569;-81
2021/03/18 07:22:42;;;;;;;11.75;10.00;;;5.40;99.90;;;;;;5034256;28;20277;-81
2021/03/18 07:25:10;;;;;;;13.02;9.93;;;5.30;99.90;;;;;;5033947;28;20218;-81
2021/03/18 07:27:40;;;;;;;13.98;10.25;;;5.20;99.90;;;;;;5034073;28;20608;-80
2021/03/18 07:30:08;;;;;;;14.55;11.27;;;5.00;99.90;;;;;;5033914;28;20646;-80
2021/03/18 07:32:34;;;;;;;15.10;11.43;;;5.00;99.90;;;;;;5039968;28;20197;-80
2021/03/18 07:35:00;;;;;;;13.25;11.23;;;5.10;99.90;;;;;;5053632;28;20756;-80
2021/03/18 07:37:26;;;;;;;14.70;10.57;;;5.20;99.90;;;;;;5053834;28;20225;-80
2021/03/18 07:39:53;;;;;;;12.65;11.23;;;5.30;99.90;;;;;;5053789;28;20193;-80
2021/03/18 07:42:20;;;;;;;14.43;11.30;;;5.40;99.90;;;;;;5053446;28;20717;-80
2021/03/18 07:44:46;;;;;;;12.50;11.20;;;5.40;99.90;;;;;;5053547;28;20633;-81
2021/03/18 07:47:15;;;;;;;12.75;11.13;;;5.40;99.90;;;;;;5053219;28;20640;-80
2021/03/18 07:49:43;;;;;;;16.63;12.27;;;5.50;99.90;;;;;;5053532;28;20221;-81
2021/03/18 07:52:15;;;;;;;14.15;11.85;;;5.50;99.90;;;;;;5050313;28;20260;-81
2021/03/18 07:54:45;;;;;;;14.70;10.75;;;5.60;99.90;;;;;;5053488;28;20280;-81
2021/03/18 07:57:15;;;;;;;14.02;11.27;;;5.70;99.90;;;;;;5046148;28;20218;-78
2021/03/18 07:59:42;;;;;;;21.45;11.75;;;5.60;99.90;;;;;;5057549;28;20190;-81
2021/03/18 08:02:13;;;;;;;13.98;11.68;;;5.60;99.90;;;;;;5036198;28;20268;-80
2021/03/18 08:04:40;;;;;;;14.30;11.43;;;5.60;99.90;;;;;;5046542;28;20581;-80
2021/03/18 08:07:06;;;;;;;15.52;11.35;;;5.60;99.90;;;;;;5053319;28;20710;-80
2021/03/18 08:09:50;;;;;;;14.88;11.52;;;5.50;99.90;;;;;;5043016;28;20241;-80
2021/03/18 08:12:41;;;;;;;14.93;11.02;;;5.50;99.90;;;;;;5036623;28;20178;-79
2021/03/18 08:15:30;;;;;;;14.60;11.38;;;5.50;99.90;;;;;;5042234;28;20535;-80
2021/03/18 08:18:44;;;;;;;10.07;8.23;;;5.50;99.90;;;;;;5048992;28;20221;-80
2021/03/18 08:21:12;;;;;;;14.20;10.75;;;5.50;99.90;;;;;;5043468;28;20221;-78
2021/03/18 08:23:44;;;;;;;12.43;9.75;;;5.50;99.90;;;;;;5032769;28;20225;-78
2021/03/18 08:26:18;;;;;;;11.13;8.90;;;5.60;99.90;;;;;;5049282;28;20281;-79
2021/03/18 08:28:47;;;;;;;10.68;8.82;;;5.60;99.90;;;;;;5040081;28;20209;-81
2021/03/18 08:31:15;;;;;;;11.13;9.30;;;5.70;99.90;;;;;;5041261;28;20225;-80
2021/03/18 08:33:47;;;;;;;10.48;8.63;;;5.80;99.90;;;;;;5033162;28;20229;-79
2021/03/18 08:36:21;;;;;;;17.92;9.18;;;5.90;99.90;;;;;;5049037;28;20610;-79
2021/03/18 08:38:48;;;;;;;10.20;8.70;;;6.00;99.90;;;;;;5040301;28;20277;-78
2021/03/18 08:41:31;;;;;;;9.98;8.90;;;6.20;99.90;;;;;;5040772;28;20190;-78
2021/03/18 08:44:17;;;;;;;9.90;8.85;;;6.40;99.90;;;;;;5049914;28;20190;-78
2021/03/18 08:46:48;;;;;;;10.82;7.85;;;6.70;99.90;;;;;;5045294;28;20593;-79
2021/03/18 08:49:31;;;;;;;11.90;8.30;;;6.90;99.90;;;;;;5049039;28;20213;-81
2021/03/18 08:51:59;;;;;;;9.65;8.05;;;7.20;99.90;;;;;;5053745;28;20572;-81
2021/03/18 08:54:51;;;;;;;13.20;8.27;;;7.40;99.90;;;;;;5044278;28;20179;-81
2021/03/18 08:57:34;;;;;;;6.00;5.40;;;7.50;99.90;;;;;;5032232;28;20237;-81
2021/03/18 09:00:11;;;;;;;8.93;7.05;;;7.50;99.90;;;;;;5034396;28;20186;-82
2021/03/18 09:02:38;;;;;;;8.90;6.70;;;7.40;99.90;;;;;;5033322;28;20240;-81
2021/03/18 09:05:07;;;;;;;14.65;7.55;;;7.40;99.90;;;;;;5032589;28;20194;-81
2021/03/18 09:07:33;;;;;;;11.47;8.37;;;7.30;99.90;;;;;;5032370;28;20329;-80
2021/03/18 09:10:15;;;;;;;8.18;7.07;;;7.10;99.90;;;;;;5033442;28;20892;-80
2021/03/18 09:12:49;;;;;;;8.15;6.10;;;7.20;99.90;;;;;;5036480;28;20243;-80
2021/03/18 09:15:28;;;;;;;7.68;6.13;;;7.30;99.90;;;;;;5035473;28;20279;-81
2021/03/18 09:17:57;;;;;;;9.63;6.47;;;7.30;99.90;;;;;;5036541;28;20191;-77
2021/03/18 09:20:28;;;;;;;7.47;5.80;;;7.40;99.90;;;;;;5040510;28;20194;-76
2021/03/18 09:23:06;;;;;;;8.48;6.38;;;7.60;99.90;;;;;;5055677;28;20285;-80
2021/03/18 09:25:32;;;;;;;6.13;5.60;;;7.70;99.90;;;;;;5047703;28;20279;-80
2021/03/18 09:27:59;;;;;;;7.50;6.00;;;7.80;99.90;;;;;;5047139;28;20452;-77
2021/03/18 09:30:30;;;;;;;6.55;5.70;;;7.80;99.90;;;;;;5048051;28;20488;-78
2021/03/18 09:32:57;;;;;;;15.50;6.50;;;7.80;99.90;;;;;;5048147;28;20190;-77
2021/03/18 09:35:25;;;;;;;7.15;4.90;;;7.90;99.90;;;;;;5046293;28;20256;-77
2021/03/18 09:37:51;;;;;;;6.90;5.20;;;7.90;99.90;;;;;;5047847;28;20191;-77
2021/03/18 09:40:18;;;;;;;9.20;5.80;;;7.90;99.90;;;;;;5039342;28;20475;-77
2021/03/18 09:42:45;;;;;;;6.67;6.03;;;8.10;99.90;;;;;;5055555;28;20460;-77
2021/03/18 09:45:19;;;;;;;5.90;5.13;;;8.30;99.90;;;;;;5038773;28;20503;-77
2021/03/18 09:47:52;;;;;;;7.93;5.03;;;8.50;99.90;;;;;;5048288;28;20955;-76
2021/03/18 09:50:22;;;;;;;5.70;4.97;;;8.50;99.90;;;;;;5046976;28;20487;-77
2021/03/18 09:52:48;;;;;;;5.00;4.50;;;8.60;99.90;;;;;;5046363;28;20440;-77
2021/03/18 09:55:16;;;;;;;5.33;4.60;;;8.70;99.90;;;;;;5052629;28;20480;-78
2021/03/18 09:57:42;;;;;;;12.30;7.43;;;8.90;99.90;;;;;;5041687;28;20951;-77
2021/03/18 10:00:11;;;;;;;8.30;6.63;;;9.00;99.90;;;;;;5055235;28;20476;-76
2021/03/18 10:02:38;;;;;;;10.50;5.90;;;9.30;99.90;;;;;;5040981;28;20982;-77
2021/03/18 10:05:07;;;;;;;10.50;7.27;;;9.50;99.90;;;;;;5051631;28;20530;-76
2021/03/18 10:07:34;;;;;;;8.07;6.50;;;9.60;99.90;;;;;;5040215;28;20447;-76
2021/03/18 10:10:00;;;;;;;6.63;5.93;;;9.70;99.90;;;;;;5046093;28;20476;-76
2021/03/18 10:12:28;;;;;;;6.80;6.20;;;9.80;99.90;;;;;;5047354;28;20975;-76
2021/03/18 10:14:57;;;;;;;5.67;4.97;;;9.90;99.90;;;;;;5054712;28;20448;-76
2021/03/18 10:17:26;;;;;;;7.43;6.47;;;10.00;99.90;;;;;;5038797;28;20506;-76
2021/03/18 10:19:57;;;;;;;6.83;6.10;;;10.10;99.90;;;;;;5047071;28;20449;-76
2021/03/18 10:22:30;;;;;;;6.00;5.40;;;10.10;99.90;;;;;;5045514;28;20444;-76
2021/03/18 10:25:04;;;;;;;9.77;6.43;;;9.90;99.90;;;;;;5050426;28;21056;-76
2021/03/18 10:27:34;;;;;;;8.40;6.80;;;9.80;99.90;;;;;;5049513;28;20449;-76
2021/03/18 10:30:11;;;;;;;7.03;6.33;;;9.60;99.90;;;;;;5045446;28;20519;-76
2021/03/18 10:32:37;;;;;;;6.83;6.10;;;9.40;99.90;;;;;;5047280;28;20468;-76
2021/03/18 10:35:05;;;;;;;8.30;6.77;;;9.10;99.90;;;;;;5044748;28;20451;-79
2021/03/18 10:37:37;;;;;;;7.30;6.47;;;8.80;99.90;;;;;;5036030;28;20503;-76
2021/03/18 10:40:17;;;;;;;8.30;5.80;;;8.60;99.90;;;;;;5043728;28;20807;-76
2021/03/18 10:42:48;;;;;;;6.50;5.90;;;8.40;99.90;;;;;;5053161;28;20452;-77
2021/03/18 10:45:32;;;;;;;5.27;4.73;;;8.30;99.90;;;;;;5037523;28;20457;-77
2021/03/18 10:48:02;;;;;;;7.90;5.90;;;8.10;99.90;;;;;;5045317;28;20484;-77
2021/03/18 10:50:31;;;;;;;5.90;4.67;;;8.00;99.90;;;;;;5039131;28;20229;-77
2021/03/18 10:53:01;;;;;;;5.90;5.30;;;7.80;99.90;;;;;;5035870;28;20441;-77
2021/03/18 10:55:32;;;;;;;8.30;5.70;;;7.80;99.90;;;;;;5060641;28;20806;-76
2021/03/18 10:58:03;;;;;;;7.30;5.50;;;7.80;99.90;;;;;;5044690;28;20444;-77
2021/03/18 11:00:31;;;;;;;7.00;5.93;;;8.00;99.90;;;;;;5038582;28;20477;-76
2021/03/18 11:03:06;;;;;;;6.80;6.20;;;8.10;99.90;;;;;;5052663;28;20544;-76
2021/03/18 11:05:39;;;;;;;7.10;6.40;;;8.20;99.90;;;;;;5046310;28;20445;-76
2021/03/18 11:08:07;;;;;;;5.83;5.33;;;8.20;99.90;;;;;;5045860;28;20541;-76
2021/03/18 11:10:37;;;;;;;8.43;6.30;;;8.30;99.90;;;;;;5037762;28;20504;-76
2021/03/18 11:13:06;;;;;;;7.80;5.97;;;8.30;99.90;;;;;;5037374;28;20441;-76
2021/03/18 11:15:46;;;;;;;6.53;5.93;;;8.40;99.90;;;;;;5045956;28;20947;-76
2021/03/18 11:18:13;;;;;;;5.87;5.37;;;8.70;99.90;;;;;;5046666;28;20445;-76
2021/03/18 11:20:41;;;;;;;5.83;5.33;;;9.00;99.90;;;;;;5053251;28;20452;-76
2021/03/18 11:23:09;;;;;;;4.77;3.93;;;9.20;99.90;;;;;;5037560;28;20476;-77
2021/03/18 11:25:36;;;;;;;4.60;4.20;;;9.10;99.90;;;;;;5053080;28;20481;-76
2021/03/18 11:28:02;;;;;;;4.30;3.53;;;9.00;99.90;;;;;;5041600;28;21824;-76
2021/03/18 11:30:31;;;;;;;4.90;3.57;;;8.80;99.90;;;;;;5048539;28;20614;-76
2021/03/18 11:33:15;;;;;;;4.27;3.60;;;8.70;99.90;;;;;;5040397;28;20448;-77
2021/03/18 11:35:43;;;;;;;3.70;3.40;;;8.80;99.90;;;;;;5041906;28;20455;-76
2021/03/18 11:38:10;;;;;;;4.37;3.97;;;8.80;99.90;;;;;;5040363;28;20457;-77
2021/03/18 11:40:37;;;;;;;5.17;3.57;;;8.80;99.90;;;;;;5049724;28;20517;-76
2021/03/18 11:43:04;;;;;;;3.53;3.23;;;8.80;99.90;;;;;;5035655;28;20453;-77
2021/03/18 11:45:30;;;;;;;3.93;3.17;;;8.90;99.90;;;;;;5035410;28;20453;-76
2021/03/18 11:47:57;;;;;;;4.17;3.70;;;9.10;99.90;;;;;;5043695;28;20456;-81
2021/03/18 11:50:23;;;;;;;4.90;4.10;;;9.30;99.90;;;;;;5050836;28;20843;-76
2021/03/18 11:52:49;;;;;;;4.87;3.60;;;9.30;99.90;;;;;;5039266;28;20444;-77
2021/03/18 11:55:17;;;;;;;4.60;4.10;;;9.50;99.90;;;;;;5036431;28;20479;-76
2021/03/18 11:57:43;;;;;;;6.17;4.10;;;9.50;99.90;;;;;;5040046;28;20453;-76
2021/03/18 12:00:11;;;;;;;5.50;4.73;;;9.30;99.90;;;;;;5037838;28;20445;-76
2021/03/18 12:02:37;;;;;;;4.43;4.03;;;9.30;99.90;;;;;;5038864;28;20544;-76
2021/03/18 12:05:05;;;;;;;4.30;4.00;;;9.20;99.90;;;;;;5036438;28;20855;-76
2021/03/18 12:07:31;;;;;;;5.23;3.97;;;9.10;99.90;;;;;;5045452;28;20528;-77
2021/03/18 12:09:57;;;;;;;4.70;4.20;;;9.20;99.90;;;;;;5040651;28;20484;-77
2021/03/18 12:12:24;;;;;;;5.00;4.50;;;9.20;99.90;;;;;;5049681;28;20944;-76
2021/03/18 12:14:50;;;;;;;6.77;4.97;;;9.30;99.90;;;;;;5036255;28;20854;-76
2021/03/18 12:17:16;;;;;;;5.43;4.93;;;9.30;99.90;;;;;;5047454;28;20477;-76
2021/03/18 12:19:42;;;;;;;5.60;4.10;;;9.50;99.90;;;;;;5041601;28;20805;-76
2021/03/18 12:22:08;;;;;;;5.40;4.70;;;9.80;99.90;;;;;;5040142;28;20449;-76
2021/03/18 12:24:34;;;;;;;5.73;4.40;;;10.10;99.90;;;;;;5048484;28;20504;-77
2021/03/18 12:27:00;;;;;;;4.67;3.90;;;10.40;99.90;;;;;;5036092;28;20543;-77
2021/03/18 12:29:27;;;;;;;6.30;3.93;;;10.80;99.90;;;;;;5045358;28;20469;-76
2021/03/18 12:31:53;;;;;;;4.27;3.87;;;11.20;99.90;;;;;;5033340;28;20532;-77
2021/03/18 12:34:20;;;;;;;4.47;4.07;;;11.40;99.90;;;;;;5038501;28;20445;-77
2021/03/18 12:36:46;;;;;;;4.37;4.00;;;11.50;99.90;;;;;;5049061;28;20784;-77
2021/03/18 12:39:12;;;;;;;4.10;3.70;;;11.80;99.90;;;;;;5037155;28;20449;-77
2021/03/18 12:41:38;;;;;;;7.13;4.27;;;12.00;99.90;;;;;;5052303;28;20456;-77
2021/03/18 12:44:05;;;;;;;3.40;3.10;;;11.90;99.90;;;;;;5040267;28;20598;-76
2021/03/18 12:46:33;;;;;;;2.40;2.27;;;11.10;99.90;;;;;;5047931;28;20854;-76
2021/03/18 12:48:59;;;;;;;2.47;2.27;;;9.50;99.90;;;;;;5035266;28;21005;-77
2021/03/18 12:51:25;;;;;;;2.03;1.90;;;8.60;99.90;;;;;;5046090;28;20472;-76
2021/03/18 12:53:51;;;;;;;2.47;2.27;;;8.00;99.90;;;;;;5042433;28;20449;-75
2021/03/18 12:56:18;;;;;;;2.03;1.83;;;7.50;99.90;;;;;;5038636;28;20495;-75
2021/03/18 12:58:44;;;;;;;2.55;2.35;;;6.80;99.90;;;;;;5045577;28;20457;-75
2021/03/18 13:01:10;;;;;;;2.78;2.58;;;6.50;99.90;;;;;;5047694;28;20645;-75